sensor_id;sensor_type;location;lat;lon;timestamp;temperature;humidity
18882;DHT22;9573;50.948;11.600;2022-08-20T00:00:30;18.80;99.90
18882;DHT22;9573;50.948;11.600;2022-08-20T00:03:04;18.80;99.90
18882;DHT22;9573;50.948;11.600;2022-08-20T00:05:37;18.70;99.90
18882;DHT22;9573;50.948;11.600;2022-08-20T00:08:06;18.70;99.90
18882;DHT22;9573;50.948;11.600;2022-08-20T00:10:36;18.70;99.90
18882;DHT22;9573;50.948;11.600;2022-08-20T00:13:06;18.60;99.90
18882;DHT22;9573;50.948;11.600;2022-08-20T00:15:38;18.70;99.90
18882;DHT22;9573;50.948;11.600;2022-08-20T00:18:07;18.60;99.90
18882;DHT22;9573;50.948;11.600;2022-08-20T00:20:38;18.60;99.90
18882;DHT22;9573;50.948;11.600;2022-08-20T00:23:07;18.60;99.90
18882;DHT22;9573;50.948;11.600;2022-08-20T00:25:35;18.50;99.90
18882;DHT22;9573;50.948;11.600;2022-08-20T00:28:04;18.50;99.90
18882;DHT22;9573;50.948;11.600;2022-08-20T00:30:32;18.50;99.90
18882;DHT22;9573;50.948;11.600;2022-08-20T00:33:04;18.40;99.90
18882;DHT22;9573;50.948;11.600;2022-08-20T00:35:35;18.30;99.90
18882;DHT22;9573;50.948;11.600;2022-08-20T00:38:04;18.30;99.90
18882;DHT22;9573;50.948;11.600;2022-08-20T00:40:34;18.30;99.90
18882;DHT22;9573;50.948;11.600;2022-08-20T00:43:07;18.30;99.90
18882;DHT22;9573;50.948;11.600;2022-08-20T00:45:52;18.30;99.90
18882;DHT22;9573;50.948;11.600;2022-08-20T00:48:23;18.30;99.90
18882;DHT22;9573;50.948;11.600;2022-08-20T00:50:53;18.30;99.90
18882;DHT22;9573;50.948;11.600;2022-08-20T00:53:24;18.30;99.90
18882;DHT22;9573;50.948;11.600;2022-08-20T00:55:53;18.30;99.90
18882;DHT22;9573;50.948;11.600;2022-08-20T00:58:20;18.40;99.90
18882;DHT22;9573;50.948;11.600;2022-08-20T01:00:48;18.40;99.90
18882;DHT22;9573;50.948;11.600;2022-08-20T01:03:17;18.40;99.90
18882;DHT22;9573;50.948;11.600;2022-08-20T01:05:48;18.40;99.90
18882;DHT22;9573;50.948;11.600;2022-08-20T01:08:19;18.40;99.90
18882;DHT22;9573;50.948;11.600;2022-08-20T01:10:50;18.30;99.90
18882;DHT22;9573;50.948;11.600;2022-08-20T01:13:30;18.30;99.90
18882;DHT22;9573;50.948;11.600;2022-08-20T01:15:58;18.30;99.90
18882;DHT22;9573;50.948;11.600;2022-08-20T01:18:27;18.40;99.90
18882;DHT22;9573;50.948;11.600;2022-08-20T01:20:59;18.30;99.90
18882;DHT22;9573;50.948;11.600;2022-08-20T01:23:36;18.40;99.90
18882;DHT22;9573;50.948;11.600;2022-08-20T01:26:09;18.30;99.90
18882;DHT22;9573;50.948;11.600;2022-08-20T01:28:39;18.30;99.90
18882;DHT22;9573;50.948;11.600;2022-08-20T01:31:12;18.30;99.90
18882;DHT22;9573;50.948;11.600;2022-08-20T01:33:41;18.30;99.90
18882;DHT22;9573;50.948;11.600;2022-08-20T01:36:10;18.30;99.90
18882;DHT22;9573;50.948;11.600;2022-08-20T01:38:38;18.30;99.90
18882;DHT22;9573;50.948;11.600;2022-08-20T01:41:29;18.30;99.90
18882;DHT22;9573;50.948;11.600;2022-08-20T01:44:05;18.30;99.90
18882;DHT22;9573;50.948;11.600;2022-08-20T01:46:36;18.30;99.90
18882;DHT22;9573;50.948;11.600;2022-08-20T01:49:08;18.40;99.90
18882;DHT22;9573;50.948;11.600;2022-08-20T01:51:37;18.30;99.90
18882;DHT22;9573;50.948;11.600;2022-08-20T01:54:04;18.30;99.90
18882;DHT22;9573;50.948;11.600;2022-08-20T01:56:34;18.30;99.90
18882;DHT22;9573;50.948;11.600;2022-08-20T01:59:04;18.30;99.90
18882;DHT22;9573;50.948;11.600;2022-08-20T02:01:40;18.30;99.90
18882;DHT22;9573;50.948;11.600;2022-08-20T02:04:19;18.20;99.90
18882;DHT22;9573;50.948;11.600;2022-08-20T02:07:05;18.20;99.90
18882;DHT22;9573;50.948;11.600;2022-08-20T02:10:03;18.20;99.90
18882;DHT22;9573;50.948;11.600;2022-08-20T02:12:59;18.20;99.90
18882;DHT22;9573;50.948;11.600;2022-08-20T02:15:39;18.20;99.90
18882;DHT22;9573;50.948;11.600;2022-08-20T02:18:17;18.20;99.90
18882;DHT22;9573;50.948;11.600;2022-08-20T02:21:03;18.20;99.90
18882;DHT22;9573;50.948;11.600;2022-08-20T02:23:40;18.20;99.90
18882;DHT22;9573;50.948;11.600;2022-08-20T02:26:41;18.20;99.90
18882;DHT22;9573;50.948;11.600;2022-08-20T02:29:11;18.20;99.90
18882;DHT22;9573;50.948;11.600;2022-08-20T02:31:42;18.20;99.90
18882;DHT22;9573;50.948;11.600;2022-08-20T02:34:11;18.20;99.90
18882;DHT22;9573;50.948;11.600;2022-08-20T02:36:41;18.20;99.90
18882;DHT22;9573;50.948;11.600;2022-08-20T02:39:11;18.20;99.90
18882;DHT22;9573;50.948;11.600;2022-08-20T02:41:39;18.20;99.90
18882;DHT22;9573;50.948;11.600;2022-08-20T02:44:07;18.20;99.90
18882;DHT22;9573;50.948;11.600;2022-08-20T02:46:36;18.20;99.90
18882;DHT22;9573;50.948;11.600;2022-08-20T02:49:04;18.20;99.90
18882;DHT22;9573;50.948;11.600;2022-08-20T02:51:31;18.20;99.90
18882;DHT22;9573;50.948;11.600;2022-08-20T02:53:59;18.20;99.90
18882;DHT22;9573;50.948;11.600;2022-08-20T02:56:26;18.20;99.90
18882;DHT22;9573;50.948;11.600;2022-08-20T02:58:53;18.20;99.90
18882;DHT22;9573;50.948;11.600;2022-08-20T03:01:20;18.20;99.90
18882;DHT22;9573;50.948;11.600;2022-08-20T03:03:49;18.20;99.90
18882;DHT22;9573;50.948;11.600;2022-08-20T03:06:16;18.20;99.90
18882;DHT22;9573;50.948;11.600;2022-08-20T03:08:45;18.20;99.90
18882;DHT22;9573;50.948;11.600;2022-08-20T03:11:12;18.20;99.90
18882;DHT22;9573;50.948;11.600;2022-08-20T03:13:39;18.20;99.90
18882;DHT22;9573;50.948;11.600;2022-08-20T03:16:07;18.20;99.90
18882;DHT22;9573;50.948;11.600;2022-08-20T03:18:38;18.20;99.90
18882;DHT22;9573;50.948;11.600;2022-08-20T03:21:10;18.20;99.90
18882;DHT22;9573;50.948;11.600;2022-08-20T03:23:39;18.20;99.90
18882;DHT22;9573;50.948;11.600;2022-08-20T03:26:08;18.20;99.90
18882;DHT22;9573;50.948;11.600;2022-08-20T03:28:37;18.20;99.90
18882;DHT22;9573;50.948;11.600;2022-08-20T03:31:05;18.20;99.90
18882;DHT22;9573;50.948;11.600;2022-08-20T03:33:33;18.20;99.90
18882;DHT22;9573;50.948;11.600;2022-08-20T03:36:01;18.20;99.90
18882;DHT22;9573;50.948;11.600;2022-08-20T03:38:29;18.20;99.90
18882;DHT22;9573;50.948;11.600;2022-08-20T03:40:57;18.20;99.90
18882;DHT22;9573;50.948;11.600;2022-08-20T03:43:24;18.20;99.90
18882;DHT22;9573;50.948;11.600;2022-08-20T03:45:51;18.20;99.90
18882;DHT22;9573;50.948;11.600;2022-08-20T03:48:19;18.10;99.90
18882;DHT22;9573;50.948;11.600;2022-08-20T03:50:48;18.10;99.90
18882;DHT22;9573;50.948;11.600;2022-08-20T03:53:16;18.10;99.90
18882;DHT22;9573;50.948;11.600;2022-08-20T03:55:47;18.10;99.90
18882;DHT22;9573;50.948;11.600;2022-08-20T03:58:15;18.10;99.90
18882;DHT22;9573;50.948;11.600;2022-08-20T04:00:46;18.10;99.90
18882;DHT22;9573;50.948;11.600;2022-08-20T04:03:15;18.20;99.90
18882;DHT22;9573;50.948;11.600;2022-08-20T04:05:43;18.20;99.90
18882;DHT22;9573;50.948;11.600;2022-08-20T04:08:13;18.20;99.90
18882;DHT22;9573;50.948;11.600;2022-08-20T04:10:43;18.20;99.90
18882;DHT22;9573;50.948;11.600;2022-08-20T04:13:13;18.20;99.90
18882;DHT22;9573;50.948;11.600;2022-08-20T04:15:41;18.20;99.90
18882;DHT22;9573;50.948;11.600;2022-08-20T04:18:10;18.10;99.90
18882;DHT22;9573;50.948;11.600;2022-08-20T04:20:40;18.10;99.90
18882;DHT22;9573;50.948;11.600;2022-08-20T04:23:08;18.10;99.90
18882;DHT22;9573;50.948;11.600;2022-08-20T04:25:37;18.10;99.90
18882;DHT22;9573;50.948;11.600;2022-08-20T04:28:10;18.00;99.90
18882;DHT22;9573;50.948;11.600;2022-08-20T04:30:40;18.10;99.90
18882;DHT22;9573;50.948;11.600;2022-08-20T04:33:08;18.10;99.90
18882;DHT22;9573;50.948;11.600;2022-08-20T04:35:35;18.10;99.90
18882;DHT22;9573;50.948;11.600;2022-08-20T04:38:05;18.10;99.90
18882;DHT22;9573;50.948;11.600;2022-08-20T04:40:34;18.10;99.90
18882;DHT22;9573;50.948;11.600;2022-08-20T04:43:23;18.20;99.90
18882;DHT22;9573;50.948;11.600;2022-08-20T04:45:53;18.20;99.90
18882;DHT22;9573;50.948;11.600;2022-08-20T04:48:23;18.30;99.90
18882;DHT22;9573;50.948;11.600;2022-08-20T04:50:52;18.30;99.90
18882;DHT22;9573;50.948;11.600;2022-08-20T04:53:22;18.30;99.90
18882;DHT22;9573;50.948;11.600;2022-08-20T04:55:51;18.30;99.90
18882;DHT22;9573;50.948;11.600;2022-08-20T04:58:23;18.30;99.90
18882;DHT22;9573;50.948;11.600;2022-08-20T05:00:54;18.40;99.90
18882;DHT22;9573;50.948;11.600;2022-08-20T05:03:23;18.30;99.90
18882;DHT22;9573;50.948;11.600;2022-08-20T05:05:51;18.40;99.90
18882;DHT22;9573;50.948;11.600;2022-08-20T05:08:20;18.30;99.90
18882;DHT22;9573;50.948;11.600;2022-08-20T05:10:48;18.40;99.90
18882;DHT22;9573;50.948;11.600;2022-08-20T05:13:15;18.40;99.90
18882;DHT22;9573;50.948;11.600;2022-08-20T05:15:44;18.40;99.90
18882;DHT22;9573;50.948;11.600;2022-08-20T05:18:15;18.40;99.90
18882;DHT22;9573;50.948;11.600;2022-08-20T05:20:45;18.50;99.90
18882;DHT22;9573;50.948;11.600;2022-08-20T05:23:15;18.50;99.90
18882;DHT22;9573;50.948;11.600;2022-08-20T05:25:46;18.50;99.90
18882;DHT22;9573;50.948;11.600;2022-08-20T05:28:18;18.60;99.90
18882;DHT22;9573;50.948;11.600;2022-08-20T05:30:51;18.70;99.90
18882;DHT22;9573;50.948;11.600;2022-08-20T05:33:20;18.70;99.90
18882;DHT22;9573;50.948;11.600;2022-08-20T05:35:50;18.80;99.90
18882;DHT22;9573;50.948;11.600;2022-08-20T05:38:20;18.90;99.90
18882;DHT22;9573;50.948;11.600;2022-08-20T05:40:50;19.00;99.90
18882;DHT22;9573;50.948;11.600;2022-08-20T05:43:18;19.00;99.90
18882;DHT22;9573;50.948;11.600;2022-08-20T05:45:47;19.10;99.90
18882;DHT22;9573;50.948;11.600;2022-08-20T05:48:18;19.10;99.90
18882;DHT22;9573;50.948;11.600;2022-08-20T05:50:49;19.20;99.90
18882;DHT22;9573;50.948;11.600;2022-08-20T05:53:20;19.20;99.90
18882;DHT22;9573;50.948;11.600;2022-08-20T05:55:48;19.30;99.90
18882;DHT22;9573;50.948;11.600;2022-08-20T05:58:18;19.30;99.90
18882;DHT22;9573;50.948;11.600;2022-08-20T06:00:47;19.30;99.90
18882;DHT22;9573;50.948;11.600;2022-08-20T06:03:16;19.40;99.90
18882;DHT22;9573;50.948;11.600;2022-08-20T06:06:01;19.40;99.90
18882;DHT22;9573;50.948;11.600;2022-08-20T06:08:29;19.50;99.90
18882;DHT22;9573;50.948;11.600;2022-08-20T06:10:57;19.50;99.90
18882;DHT22;9573;50.948;11.600;2022-08-20T06:13:25;19.60;99.90
18882;DHT22;9573;50.948;11.600;2022-08-20T06:15:53;19.70;99.90
18882;DHT22;9573;50.948;11.600;2022-08-20T06:18:22;19.70;99.90
18882;DHT22;9573;50.948;11.600;2022-08-20T06:20:50;19.80;99.90
18882;DHT22;9573;50.948;11.600;2022-08-20T06:23:18;19.90;99.90
18882;DHT22;9573;50.948;11.600;2022-08-20T06:25:45;20.00;99.90
18882;DHT22;9573;50.948;11.600;2022-08-20T06:28:15;20.10;99.90
18882;DHT22;9573;50.948;11.600;2022-08-20T06:30:43;20.10;99.90
18882;DHT22;9573;50.948;11.600;2022-08-20T06:33:10;20.10;99.90
18882;DHT22;9573;50.948;11.600;2022-08-20T06:35:40;20.30;99.90
18882;DHT22;9573;50.948;11.600;2022-08-20T06:38:09;20.30;99.90
18882;DHT22;9573;50.948;11.600;2022-08-20T06:40:37;20.40;99.90
18882;DHT22;9573;50.948;11.600;2022-08-20T06:43:04;20.40;99.90
18882;DHT22;9573;50.948;11.600;2022-08-20T06:45:35;20.40;99.90
18882;DHT22;9573;50.948;11.600;2022-08-20T06:48:06;20.40;99.90
18882;DHT22;9573;50.948;11.600;2022-08-20T06:50:41;20.50;99.90
18882;DHT22;9573;50.948;11.600;2022-08-20T06:53:12;20.50;99.90
18882;DHT22;9573;50.948;11.600;2022-08-20T06:55:44;20.60;99.90
18882;DHT22;9573;50.948;11.600;2022-08-20T06:58:12;20.60;99.90
18882;DHT22;9573;50.948;11.600;2022-08-20T07:00:42;20.60;99.90
18882;DHT22;9573;50.948;11.600;2022-08-20T07:03:10;20.60;99.90
18882;DHT22;9573;50.948;11.600;2022-08-20T07:05:41;20.60;99.90
18882;DHT22;9573;50.948;11.600;2022-08-20T07:08:11;20.50;99.90
18882;DHT22;9573;50.948;11.600;2022-08-20T07:10:40;20.60;99.90
18882;DHT22;9573;50.948;11.600;2022-08-20T07:13:07;20.60;99.90
18882;DHT22;9573;50.948;11.600;2022-08-20T07:15:36;20.60;99.90
18882;DHT22;9573;50.948;11.600;2022-08-20T07:18:04;20.70;99.90
18882;DHT22;9573;50.948;11.600;2022-08-20T07:20:34;20.70;99.90
18882;DHT22;9573;50.948;11.600;2022-08-20T07:23:04;20.70;99.90
18882;DHT22;9573;50.948;11.600;2022-08-20T07:25:32;20.70;99.90
18882;DHT22;9573;50.948;11.600;2022-08-20T07:28:01;20.70;99.90
18882;DHT22;9573;50.948;11.600;2022-08-20T07:30:30;20.90;99.90
18882;DHT22;9573;50.948;11.600;2022-08-20T07:33:15;20.90;99.90
18882;DHT22;9573;50.948;11.600;2022-08-20T07:35:42;21.10;99.90
18882;DHT22;9573;50.948;11.600;2022-08-20T07:38:15;21.20;99.90
18882;DHT22;9573;50.948;11.600;2022-08-20T07:40:50;21.30;99.90
18882;DHT22;9573;50.948;11.600;2022-08-20T07:43:17;21.40;99.90
18882;DHT22;9573;50.948;11.600;2022-08-20T07:45:46;21.40;99.90
18882;DHT22;9573;50.948;11.600;2022-08-20T07:48:13;21.50;99.90
18882;DHT22;9573;50.948;11.600;2022-08-20T07:50:41;21.60;99.90
18882;DHT22;9573;50.948;11.600;2022-08-20T07:53:09;21.70;99.90
18882;DHT22;9573;50.948;11.600;2022-08-20T07:55:39;21.80;99.90
18882;DHT22;9573;50.948;11.600;2022-08-20T07:58:09;21.70;99.90
18882;DHT22;9573;50.948;11.600;2022-08-20T08:00:38;21.90;99.90
18882;DHT22;9573;50.948;11.600;2022-08-20T08:03:06;21.90;99.90
18882;DHT22;9573;50.948;11.600;2022-08-20T08:05:35;22.00;99.90
18882;DHT22;9573;50.948;11.600;2022-08-20T08:08:05;22.20;99.90
18882;DHT22;9573;50.948;11.600;2022-08-20T08:10:33;22.30;99.90
18882;DHT22;9573;50.948;11.600;2022-08-20T08:13:05;22.50;99.90
18882;DHT22;9573;50.948;11.600;2022-08-20T08:15:39;22.70;99.90
18882;DHT22;9573;50.948;11.600;2022-08-20T08:18:13;22.80;99.90
18882;DHT22;9573;50.948;11.600;2022-08-20T08:20:43;22.80;99.90
18882;DHT22;9573;50.948;11.600;2022-08-20T08:23:10;22.90;99.90
18882;DHT22;9573;50.948;11.600;2022-08-20T08:25:38;23.00;99.90
18882;DHT22;9573;50.948;11.600;2022-08-20T08:28:08;23.00;99.90
18882;DHT22;9573;50.948;11.600;2022-08-20T08:30:36;23.00;99.90
18882;DHT22;9573;50.948;11.600;2022-08-20T08:33:04;23.20;99.90
18882;DHT22;9573;50.948;11.600;2022-08-20T08:35:49;23.20;99.90
18882;DHT22;9573;50.948;11.600;2022-08-20T08:38:16;23.30;99.90
18882;DHT22;9573;50.948;11.600;2022-08-20T08:40:44;23.30;99.90
18882;DHT22;9573;50.948;11.600;2022-08-20T08:43:14;23.40;99.90
18882;DHT22;9573;50.948;11.600;2022-08-20T08:45:55;23.50;99.90
18882;DHT22;9573;50.948;11.600;2022-08-20T08:48:30;23.60;99.90
18882;DHT22;9573;50.948;11.600;2022-08-20T08:51:01;23.60;99.90
18882;DHT22;9573;50.948;11.600;2022-08-20T08:53:37;23.80;99.90
18882;DHT22;9573;50.948;11.600;2022-08-20T08:56:06;23.80;99.90
18882;DHT22;9573;50.948;11.600;2022-08-20T08:58:36;23.80;99.90
18882;DHT22;9573;50.948;11.600;2022-08-20T09:01:08;23.90;99.90
18882;DHT22;9573;50.948;11.600;2022-08-20T09:03:37;23.90;99.90
18882;DHT22;9573;50.948;11.600;2022-08-20T09:06:11;23.90;99.90
18882;DHT22;9573;50.948;11.600;2022-08-20T09:08:44;23.70;99.90
18882;DHT22;9573;50.948;11.600;2022-08-20T09:11:13;23.50;99.90
18882;DHT22;9573;50.948;11.600;2022-08-20T09:13:43;23.60;99.90
18882;DHT22;9573;50.948;11.600;2022-08-20T09:16:11;23.80;99.90
18882;DHT22;9573;50.948;11.600;2022-08-20T09:18:39;23.90;99.90
18882;DHT22;9573;50.948;11.600;2022-08-20T09:21:07;24.10;99.90
18882;DHT22;9573;50.948;11.600;2022-08-20T09:23:35;24.20;99.90
18882;DHT22;9573;50.948;11.600;2022-08-20T09:26:04;24.40;99.90
18882;DHT22;9573;50.948;11.600;2022-08-20T09:28:32;24.50;99.90
18882;DHT22;9573;50.948;11.600;2022-08-20T09:31:01;24.50;99.90
18882;DHT22;9573;50.948;11.600;2022-08-20T09:33:28;24.70;99.90
18882;DHT22;9573;50.948;11.600;2022-08-20T09:35:56;25.00;99.90
18882;DHT22;9573;50.948;11.600;2022-08-20T09:38:23;25.20;99.90
18882;DHT22;9573;50.948;11.600;2022-08-20T09:40:50;25.40;99.90
18882;DHT22;9573;50.948;11.600;2022-08-20T09:43:17;25.70;99.90
18882;DHT22;9573;50.948;11.600;2022-08-20T09:45:44;26.00;99.90
18882;DHT22;9573;50.948;11.600;2022-08-20T09:48:13;26.00;99.90
18882;DHT22;9573;50.948;11.600;2022-08-20T09:50:44;26.30;99.90
18882;DHT22;9573;50.948;11.600;2022-08-20T09:53:13;26.40;99.90
18882;DHT22;9573;50.948;11.600;2022-08-20T09:55:43;26.40;99.90
18882;DHT22;9573;50.948;11.600;2022-08-20T09:58:16;26.50;99.90
18882;DHT22;9573;50.948;11.600;2022-08-20T10:00:46;26.50;99.90
18882;DHT22;9573;50.948;11.600;2022-08-20T10:03:16;26.50;99.90
18882;DHT22;9573;50.948;11.600;2022-08-20T10:05:43;26.70;99.90
18882;DHT22;9573;50.948;11.600;2022-08-20T10:08:11;27.10;99.90
18882;DHT22;9573;50.948;11.600;2022-08-20T10:10:39;27.50;99.90
18882;DHT22;9573;50.948;11.600;2022-08-20T10:13:06;27.90;99.90
18882;DHT22;9573;50.948;11.600;2022-08-20T10:15:33;28.10;99.90
18882;DHT22;9573;50.948;11.600;2022-08-20T10:18:02;28.40;99.90
18882;DHT22;9573;50.948;11.600;2022-08-20T10:20:34;28.70;99.90
18882;DHT22;9573;50.948;11.600;2022-08-20T10:23:01;28.90;99.90
18882;DHT22;9573;50.948;11.600;2022-08-20T10:25:29;29.00;99.90
18882;DHT22;9573;50.948;11.600;2022-08-20T10:27:56;29.30;99.90
18882;DHT22;9573;50.948;11.600;2022-08-20T10:30:24;29.50;99.90
18882;DHT22;9573;50.948;11.600;2022-08-20T10:32:51;29.60;99.90
18882;DHT22;9573;50.948;11.600;2022-08-20T10:35:18;29.60;99.90
18882;DHT22;9573;50.948;11.600;2022-08-20T10:37:47;29.50;99.90
18882;DHT22;9573;50.948;11.600;2022-08-20T10:40:14;29.80;99.90
18882;DHT22;9573;50.948;11.600;2022-08-20T10:42:42;29.90;99.90
18882;DHT22;9573;50.948;11.600;2022-08-20T10:45:09;29.80;99.90
18882;DHT22;9573;50.948;11.600;2022-08-20T10:47:37;29.70;99.90
18882;DHT22;9573;50.948;11.600;2022-08-20T10:50:08;29.70;99.90
18882;DHT22;9573;50.948;11.600;2022-08-20T10:52:36;29.50;99.90
18882;DHT22;9573;50.948;11.600;2022-08-20T10:55:06;29.20;99.90
18882;DHT22;9573;50.948;11.600;2022-08-20T10:57:34;29.10;99.90
18882;DHT22;9573;50.948;11.600;2022-08-20T11:00:05;29.20;99.90
18882;DHT22;9573;50.948;11.600;2022-08-20T11:02:33;29.20;99.90
18882;DHT22;9573;50.948;11.600;2022-08-20T11:05:00;29.40;99.90
18882;DHT22;9573;50.948;11.600;2022-08-20T11:07:29;29.40;99.90
18882;DHT22;9573;50.948;11.600;2022-08-20T11:09:58;29.30;99.90
18882;DHT22;9573;50.948;11.600;2022-08-20T11:12:26;29.20;99.90
18882;DHT22;9573;50.948;11.600;2022-08-20T11:14:54;28.80;99.90
18882;DHT22;9573;50.948;11.600;2022-08-20T11:17:23;28.60;99.90
18882;DHT22;9573;50.948;11.600;2022-08-20T11:19:52;28.40;99.90
18882;DHT22;9573;50.948;11.600;2022-08-20T11:22:19;28.70;99.90
18882;DHT22;9573;50.948;11.600;2022-08-20T11:24:47;28.70;99.90
18882;DHT22;9573;50.948;11.600;2022-08-20T11:27:18;28.80;99.90
18882;DHT22;9573;50.948;11.600;2022-08-20T11:29:50;28.90;99.90
18882;DHT22;9573;50.948;11.600;2022-08-20T11:32:18;28.80;99.90
18882;DHT22;9573;50.948;11.600;2022-08-20T11:34:45;28.40;99.90
18882;DHT22;9573;50.948;11.600;2022-08-20T11:37:14;28.60;99.90
18882;DHT22;9573;50.948;11.600;2022-08-20T11:39:42;28.50;99.90
18882;DHT22;9573;50.948;11.600;2022-08-20T11:42:09;28.20;99.90
18882;DHT22;9573;50.948;11.600;2022-08-20T11:44:36;28.20;99.90
18882;DHT22;9573;50.948;11.600;2022-08-20T11:47:06;28.40;99.90
18882;DHT22;9573;50.948;11.600;2022-08-20T11:49:35;28.40;99.90
18882;DHT22;9573;50.948;11.600;2022-08-20T11:52:03;28.40;99.90
18882;DHT22;9573;50.948;11.600;2022-08-20T11:54:31;28.60;99.90
18882;DHT22;9573;50.948;11.600;2022-08-20T11:56:58;29.00;99.90
18882;DHT22;9573;50.948;11.600;2022-08-20T11:59:26;29.20;99.90
18882;DHT22;9573;50.948;11.600;2022-08-20T12:01:53;29.20;99.90
18882;DHT22;9573;50.948;11.600;2022-08-20T12:04:24;29.30;99.90
18882;DHT22;9573;50.948;11.600;2022-08-20T12:06:51;29.50;99.90
18882;DHT22;9573;50.948;11.600;2022-08-20T12:09:18;29.80;99.90
18882;DHT22;9573;50.948;11.600;2022-08-20T12:11:45;29.40;99.90
18882;DHT22;9573;50.948;11.600;2022-08-20T12:14:12;29.10;99.90
18882;DHT22;9573;50.948;11.600;2022-08-20T12:16:39;28.50;99.90
18882;DHT22;9573;50.948;11.600;2022-08-20T12:19:06;28.20;99.90
18882;DHT22;9573;50.948;11.600;2022-08-20T12:21:35;27.90;99.90
18882;DHT22;9573;50.948;11.600;2022-08-20T12:24:02;27.90;99.90
18882;DHT22;9573;50.948;11.600;2022-08-20T12:26:30;27.90;99.90
18882;DHT22;9573;50.948;11.600;2022-08-20T12:28:57;27.90;99.90
18882;DHT22;9573;50.948;11.600;2022-08-20T12:31:24;27.60;99.90
18882;DHT22;9573;50.948;11.600;2022-08-20T12:33:51;27.70;99.90
18882;DHT22;9573;50.948;11.600;2022-08-20T12:36:19;28.00;99.90
18882;DHT22;9573;50.948;11.600;2022-08-20T12:38:47;28.10;99.90
18882;DHT22;9573;50.948;11.600;2022-08-20T12:41:14;28.10;99.90
18882;DHT22;9573;50.948;11.600;2022-08-20T12:43:42;28.20;99.90
18882;DHT22;9573;50.948;11.600;2022-08-20T12:46:09;28.10;99.90
18882;DHT22;9573;50.948;11.600;2022-08-20T12:48:36;28.10;99.90
18882;DHT22;9573;50.948;11.600;2022-08-20T12:51:03;27.80;99.90
18882;DHT22;9573;50.948;11.600;2022-08-20T12:53:30;27.80;99.90
18882;DHT22;9573;50.948;11.600;2022-08-20T12:55:59;27.80;99.90
18882;DHT22;9573;50.948;11.600;2022-08-20T12:58:27;27.70;99.90
18882;DHT22;9573;50.948;11.600;2022-08-20T13:00:54;27.60;99.90
18882;DHT22;9573;50.948;11.600;2022-08-20T13:03:21;27.70;99.90
18882;DHT22;9573;50.948;11.600;2022-08-20T13:05:48;27.80;99.90
18882;DHT22;9573;50.948;11.600;2022-08-20T13:08:16;27.60;99.90
18882;DHT22;9573;50.948;11.600;2022-08-20T13:10:44;27.50;99.90
18882;DHT22;9573;50.948;11.600;2022-08-20T13:13:14;27.70;99.90
18882;DHT22;9573;50.948;11.600;2022-08-20T13:15:42;27.40;99.90
18882;DHT22;9573;50.948;11.600;2022-08-20T13:18:09;27.10;99.90
18882;DHT22;9573;50.948;11.600;2022-08-20T13:20:36;26.90;99.90
18882;DHT22;9573;50.948;11.600;2022-08-20T13:23:03;26.90;99.90
18882;DHT22;9573;50.948;11.600;2022-08-20T13:25:31;26.80;99.90
18882;DHT22;9573;50.948;11.600;2022-08-20T13:28:01;26.40;99.90
18882;DHT22;9573;50.948;11.600;2022-08-20T13:30:32;26.20;99.90
18882;DHT22;9573;50.948;11.600;2022-08-20T13:33:01;26.20;99.90
18882;DHT22;9573;50.948;11.600;2022-08-20T13:35:29;26.00;99.90
18882;DHT22;9573;50.948;11.600;2022-08-20T13:37:56;25.90;99.90
18882;DHT22;9573;50.948;11.600;2022-08-20T13:40:24;26.00;99.90
18882;DHT22;9573;50.948;11.600;2022-08-20T13:42:51;25.80;99.90
18882;DHT22;9573;50.948;11.600;2022-08-20T13:45:18;25.80;99.90
18882;DHT22;9573;50.948;11.600;2022-08-20T13:47:51;25.70;99.90
18882;DHT22;9573;50.948;11.600;2022-08-20T13:50:21;25.80;99.90
18882;DHT22;9573;50.948;11.600;2022-08-20T13:52:49;25.80;99.90
18882;DHT22;9573;50.948;11.600;2022-08-20T13:55:19;25.70;99.90
18882;DHT22;9573;50.948;11.600;2022-08-20T13:57:49;25.60;99.90
18882;DHT22;9573;50.948;11.600;2022-08-20T14:00:20;25.60;99.90
18882;DHT22;9573;50.948;11.600;2022-08-20T14:02:51;25.60;99.90
18882;DHT22;9573;50.948;11.600;2022-08-20T14:05:18;25.40;99.90
18882;DHT22;9573;50.948;11.600;2022-08-20T14:07:46;25.40;99.90
18882;DHT22;9573;50.948;11.600;2022-08-20T14:10:16;25.40;99.90
18882;DHT22;9573;50.948;11.600;2022-08-20T14:12:48;25.40;99.90
18882;DHT22;9573;50.948;11.600;2022-08-20T14:15:18;25.50;99.90
18882;DHT22;9573;50.948;11.600;2022-08-20T14:17:51;25.60;99.90
18882;DHT22;9573;50.948;11.600;2022-08-20T14:20:22;25.70;99.90
18882;DHT22;9573;50.948;11.600;2022-08-20T14:22:50;25.70;99.90
18882;DHT22;9573;50.948;11.600;2022-08-20T14:25:19;25.70;99.90
18882;DHT22;9573;50.948;11.600;2022-08-20T14:27:48;25.60;99.90
18882;DHT22;9573;50.948;11.600;2022-08-20T14:30:18;25.70;99.90
18882;DHT22;9573;50.948;11.600;2022-08-20T14:32:47;25.70;99.90
18882;DHT22;9573;50.948;11.600;2022-08-20T14:35:16;25.70;99.90
18882;DHT22;9573;50.948;11.600;2022-08-20T14:37:46;25.60;99.90
18882;DHT22;9573;50.948;11.600;2022-08-20T14:40:16;25.40;99.90
18882;DHT22;9573;50.948;11.600;2022-08-20T14:42:44;25.40;99.90
18882;DHT22;9573;50.948;11.600;2022-08-20T14:45:14;25.50;99.90
18882;DHT22;9573;50.948;11.600;2022-08-20T14:47:43;25.80;99.90
18882;DHT22;9573;50.948;11.600;2022-08-20T14:50:16;25.90;99.90
18882;DHT22;9573;50.948;11.600;2022-08-20T14:52:44;26.00;99.90
18882;DHT22;9573;50.948;11.600;2022-08-20T14:55:13;26.20;99.90
18882;DHT22;9573;50.948;11.600;2022-08-20T14:57:42;26.40;99.90
18882;DHT22;9573;50.948;11.600;2022-08-20T15:00:14;26.60;99.90
18882;DHT22;9573;50.948;11.600;2022-08-20T15:02:43;26.70;99.90
18882;DHT22;9573;50.948;11.600;2022-08-20T15:05:12;26.80;99.90
18882;DHT22;9573;50.948;11.600;2022-08-20T15:07:43;26.80;99.90
18882;DHT22;9573;50.948;11.600;2022-08-20T15:10:14;26.80;99.90
18882;DHT22;9573;50.948;11.600;2022-08-20T15:12:43;26.80;99.90
18882;DHT22;9573;50.948;11.600;2022-08-20T15:15:12;26.70;99.90
18882;DHT22;9573;50.948;11.600;2022-08-20T15:17:43;26.70;99.90
18882;DHT22;9573;50.948;11.600;2022-08-20T15:20:13;26.80;99.90
18882;DHT22;9573;50.948;11.600;2022-08-20T15:22:44;26.60;99.90
18882;DHT22;9573;50.948;11.600;2022-08-20T15:25:13;26.50;99.90
18882;DHT22;9573;50.948;11.600;2022-08-20T15:27:42;26.60;99.90
18882;DHT22;9573;50.948;11.600;2022-08-20T15:30:11;26.40;99.90
18882;DHT22;9573;50.948;11.600;2022-08-20T15:32:42;26.30;99.90
18882;DHT22;9573;50.948;11.600;2022-08-20T15:35:09;26.40;99.90
18882;DHT22;9573;50.948;11.600;2022-08-20T15:37:38;26.30;99.90
18882;DHT22;9573;50.948;11.600;2022-08-20T15:40:09;26.20;99.90
18882;DHT22;9573;50.948;11.600;2022-08-20T15:42:37;26.10;99.90
18882;DHT22;9573;50.948;11.600;2022-08-20T15:45:06;26.10;99.90